createdAt,value
2023-02-02T00:01:42.077Z,96730.50
2023-02-02T00:04:16.932Z,96725.66
2023-02-02T00:06:46.494Z,96718.84
2023-02-02T00:09:15.814Z,96717.72
2023-02-02T00:11:43.624Z,96720.81
2023-02-02T00:14:12.212Z,96719.19
2023-02-02T00:16:43.217Z,96718.53
2023-02-02T00:19:13.057Z,96718.16
2023-02-02T00:21:40.915Z,96715.56
2023-02-02T00:24:11.678Z,96715.56
2023-02-02T00:26:41.775Z,96711.78
2023-02-02T00:29:16.112Z,96714.84
2023-02-02T00:31:43.836Z,96712.41
2023-02-02T00:34:13.386Z,96714.69
2023-02-02T00:36:41.915Z,96715.28
2023-02-02T00:39:14.375Z,96715.28
2023-02-02T00:41:41.436Z,96712.47
2023-02-02T00:44:09.035Z,96713.91
2023-02-02T00:46:39.839Z,96708.69
2023-02-02T00:49:07.929Z,96704.59
2023-02-02T00:51:35.476Z,96701.16
2023-02-02T00:54:03.877Z,96701.34
2023-02-02T00:56:32.596Z,96688.63
2023-02-02T00:58:59.854Z,96694.63
2023-02-02T01:01:27.748Z,96687.78
2023-02-02T01:03:55.027Z,96683.06
2023-02-02T01:06:22.155Z,96691.88
2023-02-02T01:08:49.315Z,96688.78
2023-02-02T01:11:16.694Z,96690.91
2023-02-02T01:13:45.285Z,96696.78
2023-02-02T01:16:13.116Z,96702.38
2023-02-02T01:18:40.293Z,96709.25
2023-02-02T01:21:09.635Z,96710.41
2023-02-02T01:23:38.704Z,96699.81
2023-02-02T01:26:08.803Z,96706.06
2023-02-02T01:28:37.207Z,96713.03
2023-02-02T01:31:09.735Z,96704.25
2023-02-02T01:33:37.066Z,96702.75
2023-02-02T01:36:07.908Z,96706.66
2023-02-02T01:38:35.906Z,96712.16
2023-02-02T01:41:03.903Z,96709.47
2023-02-02T01:43:51.868Z,96713.84
2023-02-02T01:46:22.696Z,96706.53
2023-02-02T01:48:56.109Z,96707.06
2023-02-02T01:51:28.223Z,96702.38
2023-02-02T01:53:59.800Z,96709.06
2023-02-02T01:56:32.928Z,96712.31
2023-02-02T01:59:02.371Z,96720.53
2023-02-02T02:01:31.285Z,96713.19
2023-02-02T02:03:59.151Z,96711.25
2023-02-02T02:06:27.666Z,96696.06
2023-02-02T02:08:59.960Z,96700.63
2023-02-02T02:11:27.987Z,96709.13
2023-02-02T02:13:58.583Z,96706.03
2023-02-02T02:16:43.195Z,96717.28
2023-02-02T02:19:49.995Z,96704.22
2023-02-02T02:22:21.641Z,96721.19
2023-02-02T02:25:32.255Z,96716.25
2023-02-02T02:28:51.804Z,96718.88
2023-02-02T02:31:54.735Z,96720.81
2023-02-02T02:34:38.038Z,96723.94
2023-02-02T02:37:12.161Z,96728.97
2023-02-02T02:39:46.059Z,96726.66
2023-02-02T02:42:20.401Z,96727.66
2023-02-02T02:44:50.578Z,96741.66
2023-02-02T02:47:19.662Z,96730.88
2023-02-02T02:49:49.623Z,96726.28
2023-02-02T02:52:16.792Z,96733.75
2023-02-02T02:54:49.891Z,96723.66
2023-02-02T02:57:44.986Z,96733.38
2023-02-02T03:00:32.804Z,96730.47
2023-02-02T03:03:14.884Z,96722.09
2023-02-02T03:05:55.242Z,96721.94
2023-02-02T03:08:32.929Z,96724.38
2023-02-02T03:11:03.365Z,96710.84
2023-02-02T03:13:32.322Z,96707.56
2023-02-02T03:16:00.266Z,96710.50
2023-02-02T03:18:30.722Z,96703.00
2023-02-02T03:20:59.909Z,96695.00
2023-02-02T03:23:28.112Z,96695.50
2023-02-02T03:25:56.356Z,96697.94
2023-02-02T03:28:25.334Z,96698.13
2023-02-02T03:30:55.286Z,96702.72
2023-02-02T03:33:23.568Z,96707.72
2023-02-02T03:35:50.912Z,96701.72
2023-02-02T03:38:19.747Z,96696.50
2023-02-02T03:40:47.105Z,96700.44
2023-02-02T03:43:19.663Z,96697.94
2023-02-02T03:45:46.783Z,96699.72
2023-02-02T03:48:13.946Z,96697.78
2023-02-02T03:50:41.083Z,96701.69
2023-02-02T03:53:08.309Z,96692.84
2023-02-02T03:55:36.923Z,96698.69
2023-02-02T03:58:03.983Z,96698.69
2023-02-02T04:00:31.203Z,96701.69
2023-02-02T04:02:58.315Z,96711.38
2023-02-02T04:05:25.908Z,96716.22
2023-02-02T04:07:53.144Z,96712.31
2023-02-02T04:10:21.052Z,96706.97
2023-02-02T04:12:49.705Z,96706.47
2023-02-02T04:15:16.942Z,96711.03
2023-02-02T04:17:44.064Z,96710.53
2023-02-02T04:20:12.346Z,96714.31
2023-02-02T04:22:39.545Z,96711.50
2023-02-02T04:25:07.923Z,96700.25
2023-02-02T04:27:35.066Z,96711.94
2023-02-02T04:30:04.303Z,96706.25
2023-02-02T04:32:31.386Z,96712.47
2023-02-02T04:34:58.609Z,96711.97
2023-02-02T04:37:25.788Z,96707.88
2023-02-02T04:39:52.944Z,96712.28
2023-02-02T04:42:20.106Z,96712.94
2023-02-02T04:44:47.306Z,96727.97
2023-02-02T04:47:15.763Z,96730.94
2023-02-02T04:49:42.963Z,96729.47
2023-02-02T04:52:11.372Z,96724.72
2023-02-02T04:54:38.584Z,96727.34
2023-02-02T04:57:05.809Z,96728.00
2023-02-02T04:59:32.942Z,96725.06
2023-02-02T05:02:00.643Z,96725.19
2023-02-02T05:04:29.728Z,96731.91
2023-02-02T05:06:56.984Z,96726.38
2023-02-02T05:09:24.285Z,96730.28
2023-02-02T05:11:51.345Z,96734.88
2023-02-02T05:14:18.526Z,96737.63
2023-02-02T05:16:46.235Z,96731.22
2023-02-02T05:19:13.668Z,96737.78
2023-02-02T05:21:42.307Z,96742.38
2023-02-02T05:24:09.968Z,96742.69
2023-02-02T05:26:37.251Z,96734.22
2023-02-02T05:29:04.588Z,96733.69
2023-02-02T05:31:31.743Z,96737.47
2023-02-02T05:33:59.307Z,96738.91
2023-02-02T05:36:26.469Z,96741.38
2023-02-02T05:38:55.194Z,96739.56
2023-02-02T05:41:22.387Z,96746.28
2023-02-02T05:43:49.608Z,96751.03
2023-02-02T05:46:16.952Z,96745.31
2023-02-02T05:48:44.209Z,96741.53
2023-02-02T05:51:18.952Z,96745.13
2023-02-02T05:53:46.418Z,96743.81
2023-02-02T05:56:15.448Z,96729.91
2023-02-02T05:58:42.650Z,96734.34
2023-02-02T06:01:09.887Z,96740.53
2023-02-02T06:03:37.231Z,96739.84
2023-02-02T06:06:07.011Z,96747.69
2023-02-02T06:08:34.992Z,96743.28
2023-02-02T06:11:09.515Z,96751.81
2023-02-02T06:13:38.231Z,96751.16
2023-02-02T06:16:06.611Z,96756.69
2023-02-02T06:18:34.495Z,96765.72
2023-02-02T06:21:04.017Z,96759.34
2023-02-02T06:23:31.229Z,96759.97
2023-02-02T06:25:59.471Z,96766.66
2023-02-02T06:28:26.696Z,96759.28
2023-02-02T06:30:55.335Z,96766.59
2023-02-02T06:33:22.475Z,96772.03
2023-02-02T06:35:49.593Z,96768.38
2023-02-02T06:38:16.690Z,96767.38
2023-02-02T06:40:43.749Z,96764.25
2023-02-02T06:43:10.870Z,96760.31
2023-02-02T06:45:38.008Z,96772.22
2023-02-02T06:48:06.728Z,96769.66
2023-02-02T06:50:33.911Z,96761.47
2023-02-02T06:53:01.172Z,96763.75
2023-02-02T06:55:28.328Z,96758.88
2023-02-02T06:57:57.388Z,96762.34
2023-02-02T07:00:25.191Z,96757.34
2023-02-02T07:02:52.413Z,96762.09
2023-02-02T07:05:21.125Z,96765.22
2023-02-02T07:07:48.369Z,96764.38
2023-02-02T07:11:13.315Z,96774.22
2023-02-02T07:13:03.430Z,96775.97
2023-02-02T07:15:30.589Z,96769.16
2023-02-02T07:17:57.648Z,96765.72
2023-02-02T07:20:26.376Z,96766.44
2023-02-02T07:22:53.852Z,96769.56
2023-02-02T07:25:20.947Z,96778.38
2023-02-02T07:27:48.311Z,96783.25
2023-02-02T07:30:16.054Z,96780.81
2023-02-02T07:32:47.652Z,96779.44
2023-02-02T07:35:14.928Z,96782.72
2023-02-02T07:37:44.243Z,96779.31
2023-02-02T07:40:12.551Z,96787.66
2023-02-02T07:42:39.787Z,96791.09
2023-02-02T07:45:36.510Z,96791.44
2023-02-02T07:47:58.727Z,96809.41
2023-02-02T07:50:27.334Z,96803.03
2023-02-02T07:52:56.626Z,96811.22
2023-02-02T07:55:23.957Z,96815.28
2023-02-02T07:57:52.571Z,96806.78
2023-02-02T08:00:21.070Z,96811.69
2023-02-02T08:02:49.619Z,96817.75
2023-02-02T08:05:17.154Z,96804.03
2023-02-02T08:07:44.325Z,96811.03
2023-02-02T08:10:13.114Z,96813.88
2023-02-02T08:12:40.509Z,96812.31
2023-02-02T08:15:09.370Z,96799.44
2023-02-02T08:17:36.626Z,96797.34
2023-02-02T08:20:04.432Z,96791.78
2023-02-02T08:22:31.687Z,96791.81
2023-02-02T08:24:59.149Z,96791.00
2023-02-02T08:27:27.909Z,96802.69
2023-02-02T08:29:55.070Z,96800.78
2023-02-02T08:32:22.389Z,96801.44
2023-02-02T08:34:49.607Z,96796.81
2023-02-02T08:37:16.753Z,96807.81
2023-02-02T08:39:44.098Z,96812.47
2023-02-02T08:42:11.380Z,96817.97
2023-02-02T08:45:59.583Z,96819.03
2023-02-02T08:47:30.118Z,96823.38
2023-02-02T08:49:57.386Z,96830.59
2023-02-02T08:52:25.853Z,96827.97
2023-02-02T08:54:53.123Z,96839.19
2023-02-02T08:57:20.264Z,96833.25
2023-02-02T08:59:48.859Z,96841.63
2023-02-02T09:02:16.272Z,96844.94
2023-02-02T09:04:43.560Z,96854.75
2023-02-02T09:07:10.681Z,96854.41
2023-02-02T09:09:37.976Z,96859.78
2023-02-02T09:12:05.421Z,96854.91
2023-02-02T09:14:32.645Z,96848.81
2023-02-02T09:17:01.411Z,96847.69
2023-02-02T09:19:28.719Z,96838.69
2023-02-02T09:21:56.062Z,96852.22
2023-02-02T09:24:23.346Z,96843.06
2023-02-02T09:26:50.645Z,96845.38
2023-02-02T09:29:18.583Z,96836.56
2023-02-02T09:31:45.940Z,96847.19
2023-02-02T09:34:16.159Z,96853.41
2023-02-02T09:36:45.324Z,96849.44
2023-02-02T09:39:13.889Z,96846.28
2023-02-02T09:42:22.399Z,96850.44
2023-02-02T09:44:59.604Z,96848.03
2023-02-02T09:47:47.386Z,96846.66
2023-02-02T09:50:25.816Z,96842.66
2023-02-02T09:53:02.222Z,96840.56
2023-02-02T09:55:35.679Z,96853.06
2023-02-02T09:58:13.645Z,96838.38
2023-02-02T10:00:48.703Z,96848.72
2023-02-02T10:03:21.176Z,96844.09
2023-02-02T10:05:58.034Z,96842.41
2023-02-02T10:08:35.408Z,96855.78
2023-02-02T10:11:19.958Z,96854.09
2023-02-02T10:13:50.983Z,96848.94
2023-02-02T10:16:22.375Z,96843.50
2023-02-02T10:18:58.242Z,96844.84
2023-02-02T10:21:38.163Z,96859.00
2023-02-02T10:24:05.818Z,96858.06
2023-02-02T10:26:39.437Z,96859.94
2023-02-02T10:29:15.798Z,96864.94
2023-02-02T10:31:55.240Z,96867.78
2023-02-02T10:34:28.557Z,96864.25
2023-02-02T10:37:26.666Z,96871.81
2023-02-02T10:40:11.882Z,96870.63
2023-02-02T10:42:55.621Z,96871.03
2023-02-02T10:45:25.038Z,96872.91
2023-02-02T10:47:52.754Z,96870.56
2023-02-02T10:50:22.179Z,96883.19
2023-02-02T10:52:56.908Z,96877.06
2023-02-02T10:55:37.609Z,96870.28
2023-02-02T10:58:20.598Z,96866.81
2023-02-02T11:00:52.271Z,96869.47
2023-02-02T11:03:23.183Z,96870.34
2023-02-02T11:05:50.883Z,96877.25
2023-02-02T11:08:25.358Z,96883.84
2023-02-02T11:10:57.223Z,96873.78
2023-02-02T11:13:31.097Z,96871.41
2023-02-02T11:16:38.871Z,96870.84
2023-02-02T11:19:24.035Z,96884.94
2023-02-02T11:21:54.429Z,96870.34
2023-02-02T11:24:28.093Z,96876.84
2023-02-02T11:27:00.335Z,96873.41
2023-02-02T11:29:31.697Z,96868.75
2023-02-02T11:32:17.708Z,96873.38
2023-02-02T11:34:45.202Z,96867.13
2023-02-02T11:37:16.119Z,96877.41
2023-02-02T11:39:44.907Z,96879.25
2023-02-02T11:42:17.621Z,96877.38
2023-02-02T11:44:49.247Z,96871.41
2023-02-02T11:47:22.273Z,96869.34
2023-02-02T11:49:51.699Z,96873.16
2023-02-02T11:52:24.108Z,96872.84
2023-02-02T11:54:57.141Z,96869.97
2023-02-02T11:57:28.492Z,96872.41
2023-02-02T12:00:18.083Z,96855.09
2023-02-02T12:02:47.791Z,96846.38
2023-02-02T12:05:36.134Z,96854.09
2023-02-02T12:08:03.328Z,96841.84
2023-02-02T12:10:42.188Z,96846.59
2023-02-02T12:13:24.202Z,96841.66
2023-02-02T12:16:07.720Z,96837.47
2023-02-02T12:18:50.708Z,96839.63
2023-02-02T12:21:29.061Z,96829.28
2023-02-02T12:24:20.563Z,96832.16
2023-02-02T12:27:02.069Z,96827.09
2023-02-02T12:29:51.663Z,96824.19
2023-02-02T12:32:39.943Z,96826.03
2023-02-02T12:35:32.720Z,96828.84
2023-02-02T12:38:16.511Z,96831.19
2023-02-02T12:41:19.824Z,96830.28
2023-02-02T12:43:58.682Z,96829.81
2023-02-02T12:46:45.350Z,96826.38
2023-02-02T12:49:38.388Z,96820.66
2023-02-02T12:52:24.264Z,96821.84
2023-02-02T12:55:21.990Z,96819.03
2023-02-02T12:58:07.480Z,96829.56
2023-02-02T13:01:02.579Z,96826.09
2023-02-02T13:03:51.391Z,96824.47
2023-02-02T13:06:49.162Z,96830.53
2023-02-02T13:09:28.771Z,96828.00
2023-02-02T13:12:05.442Z,96838.53
2023-02-02T13:14:41.097Z,96842.50
2023-02-02T13:17:17.551Z,96840.31
2023-02-02T13:19:53.923Z,96837.22
2023-02-02T13:22:31.150Z,96836.09
2023-02-02T13:25:05.697Z,96826.59
2023-02-02T13:27:34.209Z,96822.03
2023-02-02T13:30:11.685Z,96832.94
2023-02-02T13:32:45.259Z,96836.50
2023-02-02T13:35:19.074Z,96829.63
2023-02-02T13:37:53.972Z,96829.91
2023-02-02T13:40:30.452Z,96828.34
2023-02-02T13:43:12.895Z,96832.34
2023-02-02T13:45:52.816Z,96837.88
2023-02-02T13:48:33.291Z,96829.72
2023-02-02T13:51:33.019Z,96841.22
2023-02-02T13:54:38.637Z,96844.13
2023-02-02T13:57:26.671Z,96837.50
2023-02-02T14:00:03.378Z,96834.34
2023-02-02T14:02:40.173Z,96843.13
2023-02-02T14:05:24.275Z,96846.09
2023-02-02T14:08:00.190Z,96841.38
2023-02-02T14:10:32.405Z,96841.41
2023-02-02T14:13:10.456Z,96853.19
2023-02-02T14:15:40.983Z,96855.66
2023-02-02T14:18:08.591Z,96856.00
2023-02-02T14:20:57.530Z,96854.72
2023-02-02T14:23:53.113Z,96857.16
2023-02-02T14:26:41.774Z,96853.16
2023-02-02T14:29:36.536Z,96865.25
2023-02-02T14:32:30.906Z,96878.34
2023-02-02T14:35:00.189Z,96874.81
2023-02-02T14:37:49.102Z,96878.47
2023-02-02T14:40:34.705Z,96881.59
2023-02-02T14:43:19.749Z,96881.94
2023-02-02T14:45:48.735Z,96880.81
2023-02-02T14:48:19.447Z,96882.81
2023-02-02T14:50:52.391Z,96881.00
2023-02-02T14:53:28.927Z,96878.75
2023-02-02T14:56:01.223Z,96879.53
2023-02-02T14:58:33.427Z,96882.34
2023-02-02T15:01:10.909Z,96884.66
2023-02-02T15:03:50.927Z,96885.63
2023-02-02T15:06:32.927Z,96880.88
2023-02-02T15:09:35.701Z,96882.34
2023-02-02T15:12:27.754Z,96880.63
2023-02-02T15:15:19.101Z,96885.59
2023-02-02T15:18:01.284Z,96885.00
2023-02-02T15:20:33.413Z,96880.41
2023-02-02T15:23:05.738Z,96886.38
2023-02-02T15:25:40.861Z,96885.09
2023-02-02T15:28:21.794Z,96882.03
2023-02-02T15:30:58.640Z,96884.06
2023-02-02T15:33:31.755Z,96870.88
2023-02-02T15:36:05.059Z,96886.69
2023-02-02T15:38:38.023Z,96889.84
2023-02-02T15:41:18.128Z,96885.19
2023-02-02T15:43:46.259Z,96896.00
2023-02-02T15:46:17.991Z,96900.78
2023-02-02T15:48:45.176Z,96893.94
2023-02-02T15:51:17.438Z,96894.63
2023-02-02T15:53:50.157Z,96905.44
2023-02-02T15:56:29.457Z,96896.47
2023-02-02T15:58:58.780Z,96898.63
2023-02-02T16:01:30.249Z,96902.41
2023-02-02T16:04:16.493Z,96905.25
2023-02-02T16:06:45.162Z,96910.63
2023-02-02T16:09:24.913Z,96915.59
2023-02-02T16:11:54.321Z,96920.19
2023-02-02T16:14:22.523Z,96926.53
2023-02-02T16:16:50.178Z,96939.84
2023-02-02T16:19:21.500Z,96939.66
2023-02-02T16:21:53.665Z,96946.72
2023-02-02T16:24:25.827Z,96939.53
2023-02-02T16:26:59.276Z,96947.06
2023-02-02T16:29:27.821Z,96945.47
2023-02-02T16:31:57.322Z,96952.31
2023-02-02T16:34:46.597Z,96954.00
2023-02-02T16:37:16.378Z,96956.63
2023-02-02T16:39:43.660Z,96957.78
2023-02-02T16:42:25.309Z,96961.88
2023-02-02T16:44:53.277Z,96969.59
2023-02-02T16:47:37.482Z,96962.22
2023-02-02T16:50:31.537Z,96958.63
2023-02-02T16:53:03.040Z,96965.03
2023-02-02T16:55:49.193Z,96956.88
2023-02-02T16:58:22.756Z,96958.00
2023-02-02T17:01:14.949Z,96971.09
2023-02-02T17:03:51.523Z,96979.63
2023-02-02T17:06:35.776Z,96982.72
2023-02-02T17:09:38.864Z,96986.16
2023-02-02T17:12:33.677Z,96989.59
2023-02-02T17:15:36.004Z,96987.16
2023-02-02T17:18:05.367Z,96987.09
2023-02-02T17:20:33.642Z,96987.56
2023-02-02T17:23:04.231Z,96990.00
2023-02-02T17:25:37.026Z,96996.38
2023-02-02T17:28:10.072Z,96993.56
2023-02-02T17:30:41.123Z,97008.91
2023-02-02T17:33:12.179Z,97006.28
2023-02-02T17:35:53.779Z,96995.66
2023-02-02T17:38:24.329Z,97005.75
2023-02-02T17:40:52.976Z,97006.88
2023-02-02T17:43:20.911Z,96994.09
2023-02-02T17:45:50.925Z,96992.94
2023-02-02T17:48:18.118Z,96997.28
2023-02-02T17:50:45.640Z,97001.03
2023-02-02T17:53:15.721Z,96987.63
2023-02-02T17:55:44.799Z,96988.75
2023-02-02T17:58:13.840Z,96987.91
2023-02-02T18:00:42.598Z,96985.94
2023-02-02T18:03:17.172Z,96983.63
2023-02-02T18:05:44.459Z,96993.59
2023-02-02T18:08:13.106Z,96992.53
2023-02-02T18:10:41.229Z,96985.84
2023-02-02T18:13:13.386Z,96980.75
2023-02-02T18:15:40.524Z,96975.69
2023-02-02T18:18:08.099Z,96978.47
2023-02-02T18:20:36.739Z,96975.03
2023-02-02T18:23:04.078Z,96970.13
2023-02-02T18:25:31.378Z,96972.50
2023-02-02T18:27:58.419Z,96972.34
2023-02-02T18:30:25.821Z,96973.78
2023-02-02T18:32:53.213Z,96967.50
2023-02-02T18:35:20.711Z,96970.28
2023-02-02T18:37:49.541Z,96965.88
2023-02-02T18:40:17.136Z,96969.63
2023-02-02T18:42:44.422Z,96973.06
2023-02-02T18:45:11.907Z,96974.31
2023-02-02T18:47:41.680Z,96960.91
2023-02-02T18:50:10.532Z,96959.94
2023-02-02T18:52:37.659Z,96966.59
2023-02-02T18:55:09.444Z,96969.38
2023-02-02T18:57:36.503Z,96976.16
2023-02-02T19:00:05.482Z,96975.63
2023-02-02T19:02:32.576Z,96976.41
2023-02-02T19:04:59.741Z,96982.56
2023-02-02T19:07:29.226Z,96993.78
2023-02-02T19:09:56.642Z,96982.34
2023-02-02T19:12:26.083Z,96985.28
2023-02-02T19:14:53.186Z,96971.00
2023-02-02T19:17:24.081Z,96978.78
2023-02-02T19:19:53.561Z,96964.19
2023-02-02T19:22:25.764Z,96972.31
2023-02-02T19:24:54.718Z,96970.00
2023-02-02T19:27:26.963Z,96970.56
2023-02-02T19:30:03.428Z,96975.41
2023-02-02T19:32:35.773Z,96975.34
2023-02-02T19:35:07.830Z,96982.47
2023-02-02T19:37:40.181Z,96984.53
2023-02-02T19:40:20.386Z,96983.66
2023-02-02T19:42:59.069Z,96991.88
2023-02-02T19:45:32.109Z,96993.75
2023-02-02T19:48:15.156Z,96992.47
2023-02-02T19:50:47.439Z,96997.44
2023-02-02T19:53:21.420Z,96991.06
2023-02-02T19:55:56.554Z,96996.88
2023-02-02T19:58:35.553Z,96999.09
2023-02-02T20:01:23.460Z,97004.13
2023-02-02T20:03:50.991Z,96997.41
2023-02-02T20:06:26.473Z,97000.56
2023-02-02T20:09:02.500Z,96999.34
2023-02-02T20:11:36.164Z,97002.63
2023-02-02T20:14:27.706Z,97002.19
2023-02-02T20:17:00.684Z,97003.47
2023-02-02T20:19:41.830Z,97001.38
2023-02-02T20:22:25.464Z,96997.81
2023-02-02T20:24:55.247Z,96997.63
2023-02-02T20:27:29.749Z,96991.91
2023-02-02T20:30:21.291Z,96982.41
2023-02-02T20:32:54.523Z,96985.50
2023-02-02T20:35:40.922Z,96987.72
2023-02-02T20:38:24.581Z,96993.41
2023-02-02T20:40:52.977Z,96990.94
2023-02-02T20:43:23.220Z,96989.47
2023-02-02T20:45:53.026Z,96991.41
2023-02-02T20:48:23.233Z,96981.84
2023-02-02T20:50:55.499Z,96993.69
2023-02-02T20:53:27.584Z,96988.63
2023-02-02T20:55:58.320Z,96985.63
2023-02-02T20:58:27.060Z,96991.53
2023-02-02T21:00:58.455Z,96990.72
2023-02-02T21:03:29.600Z,96999.16
2023-02-02T21:05:56.926Z,96999.81
2023-02-02T21:08:27.340Z,96982.69
2023-02-02T21:10:58.079Z,96984.50
2023-02-02T21:13:39.397Z,96988.19
2023-02-02T21:16:11.406Z,96984.44
2023-02-02T21:18:42.812Z,96980.94
2023-02-02T21:21:14.492Z,96994.00
2023-02-02T21:23:43.022Z,96994.81
2023-02-02T21:26:13.760Z,96997.91
2023-02-02T21:28:44.422Z,96991.22
2023-02-02T21:31:16.422Z,96989.75
2023-02-02T21:33:46.619Z,97004.94
2023-02-02T21:36:29.951Z,96995.25
2023-02-02T21:39:15.739Z,97000.41
2023-02-02T21:41:44.138Z,97005.84
2023-02-02T21:44:16.235Z,97010.34
2023-02-02T21:46:47.336Z,97013.53
2023-02-02T21:49:24.575Z,97011.13
2023-02-02T21:51:54.731Z,97020.53
2023-02-02T21:54:25.512Z,97018.78
2023-02-02T21:56:54.511Z,97018.69
2023-02-02T21:59:24.206Z,97021.09
2023-02-02T22:01:52.921Z,97023.97
2023-02-02T22:04:24.453Z,97031.66
2023-02-02T22:06:54.172Z,97028.66
2023-02-02T22:09:24.356Z,97032.69
2023-02-02T22:11:57.471Z,97042.84
2023-02-02T22:14:36.191Z,97039.00
2023-02-02T22:17:20.954Z,97043.25
2023-02-02T22:19:50.206Z,97041.47
2023-02-02T22:22:20.852Z,97040.63
2023-02-02T22:25:00.318Z,97042.56
2023-02-02T22:27:40.922Z,97045.63
2023-02-02T22:30:23.282Z,97045.47
2023-02-02T22:32:52.138Z,97045.75
2023-02-02T22:35:19.700Z,97048.34
2023-02-02T22:37:47.361Z,97052.78
2023-02-02T22:40:14.925Z,97047.81
2023-02-02T22:42:42.280Z,97047.00
2023-02-02T22:45:10.451Z,97049.06
2023-02-02T22:47:37.921Z,97058.25
2023-02-02T22:50:08.098Z,97049.06
2023-02-02T22:52:36.099Z,97055.25
2023-02-02T22:55:03.406Z,97054.03
2023-02-02T22:57:30.660Z,97063.25
2023-02-02T22:59:57.901Z,97062.72
2023-02-02T23:02:25.388Z,97067.91
2023-02-02T23:04:52.717Z,97071.47
2023-02-02T23:07:21.440Z,97076.28
2023-02-02T23:09:48.830Z,97077.13
2023-02-02T23:12:16.141Z,97081.09
2023-02-02T23:14:43.323Z,97084.81
2023-02-02T23:17:10.463Z,97089.34
2023-02-02T23:19:37.887Z,97090.44
2023-02-02T23:22:05.083Z,97100.31
2023-02-02T23:24:33.722Z,97099.50
2023-02-02T23:27:01.022Z,97106.38
2023-02-02T23:29:28.622Z,97107.47
2023-02-02T23:31:55.888Z,97111.28
2023-02-02T23:34:23.078Z,97110.47
2023-02-02T23:36:50.679Z,97112.13
2023-02-02T23:39:18.001Z,97123.09
2023-02-02T23:41:46.680Z,97117.88
2023-02-02T23:44:14.076Z,97115.28
2023-02-02T23:46:42.678Z,97121.84
2023-02-02T23:49:10.149Z,97120.19
2023-02-02T23:51:37.423Z,97123.91
2023-02-02T23:54:05.363Z,97113.50
2023-02-02T23:56:33.162Z,97120.34
2023-02-02T23:59:01.741Z,97117.88
